ADDS METAR Data INFO
IDs: Format: Raw Decoded Include TAF

Data at: 1944 UTC 18 Feb 2018

KUKF 181930Z AUTO 13007KT 10SM CLR 13/M01 A3036 RMK AO2
KUKF 181910Z AUTO 09004KT 10SM CLR 13/M01 A3037 RMK AO2
KUKF 181850Z AUTO 12006KT 10SM CLR 12/M01 A3037 RMK AO2
KUKF 181830Z AUTO 14006KT 10SM CLR 12/00 A3037 RMK AO2
KUKF 181810Z AUTO 11004KT 10SM CLR 12/M01 A3037 RMK AO2
KUKF 181750Z AUTO 07005KT 10SM CLR 12/M01 A3038 RMK AO2
KUKF 181730Z AUTO 00000KT 10SM CLR 12/00 A3038 RMK AO2
KUKF 181710Z AUTO 12005KT 10SM CLR 11/M01 A3039 RMK AO2
KUKF 181650Z AUTO 03003KT 10SM CLR 11/M01 A3039 RMK AO2
KUKF 181630Z AUTO 12009KT 10SM CLR 11/00 A3040 RMK AO2
KUKF 181610Z AUTO 04003KT 10SM CLR 11/M01 A3039 RMK AO2
KUKF 181550Z AUTO 08006KT 10SM CLR 10/M01 A3039 RMK AO2
KUKF 181530Z AUTO 00000KT 10SM CLR 10/M01 A3039 RMK AO2
KUKF 181510Z AUTO 03005KT 10SM CLR 09/M01 A3038 RMK AO2
KUKF 181450Z AUTO 36006KT 10SM CLR 09/M01 A3037 RMK AO2
KUKF 181430Z AUTO 35009KT 10SM CLR 08/00 A3036 RMK AO2
KUKF 181410Z AUTO 34005KT 10SM CLR 08/00 A3036 RMK AO2
KUKF 181350Z AUTO 36005KT 10SM CLR 07/00 A3035 RMK AO2
KUKF 181330Z AUTO 00000KT 10SM CLR 07/00 A3033 RMK AO2
KUKF 181310Z AUTO 34006KT 10SM CLR 07/00 A3032 RMK AO2
KUKF 181250Z AUTO 34003KT 10SM CLR 06/00 A3031 RMK AO2
KUKF 181230Z AUTO 32004KT 10SM CLR 06/00 A3030 RMK AO2
KUKF 181210Z AUTO 33006G18KT 10SM CLR 06/00 A3028 RMK AO2
KUKF 181150Z AUTO 34008KT 10SM CLR 06/01 A3027 RMK AO2
KUKF 181130Z AUTO 36008KT 10SM CLR 05/01 A3025 RMK AO2
KUKF 181110Z AUTO 36008KT 10SM CLR 04/02 A3024 RMK AO2
KUKF 181050Z AUTO 36007KT 10SM CLR 05/02 A3023 RMK AO2
KUKF 181030Z AUTO 34005KT 10SM CLR 05/03 A3022 RMK AO2
KUKF 181010Z AUTO 00000KT 10SM CLR 02/02 A3021 RMK AO2
KUKF 180950Z AUTO 00000KT 5SM BR CLR 02/02 A3020 RMK AO2
KUKF 180930Z AUTO 00000KT 10SM CLR 05/03 A3020 RMK AO2
KUKF 180910Z AUTO 30004KT 10SM CLR 06/04 A3017 RMK AO2
KUKF 180850Z AUTO 31007KT 10SM SCT001 05/05 A3017 RMK AO2
KUKF 180830Z AUTO 33004KT 1/4SM FG OVC001 02/02 A3017 RMK AO2
KUKF 180810Z AUTO 00000KT 1/4SM FG OVC001 03/03 A3016 RMK AO2
KUKF 180750Z AUTO 00000KT 1/2SM FG OVC001 03/03 A3015 RMK AO2
KUKF 180730Z AUTO 00000KT 1/4SM FG OVC003 03/03 A3014 RMK AO2
KUKF 180710Z AUTO 00000KT 1/4SM FG OVC003 04/04 A3014 RMK AO2
KUKF 180650Z AUTO 00000KT 1/4SM FG OVC003 04/04 A3014 RMK AO2 P0001
KUKF 180630Z AUTO 00000KT 1/4SM FG OVC003 04/04 A3013 RMK AO2
KUKF 180610Z AUTO 00000KT 1/4SM FG OVC003 04/04 A3013 RMK AO2
KUKF 180550Z AUTO 00000KT 1/4SM FG OVC003 04/04 A3013 RMK AO2
KUKF 180530Z AUTO 00000KT 1/2SM FG OVC003 04/04 A3014 RMK AO2
KUKF 180510Z AUTO 00000KT 3/4SM BR OVC003 04/04 A3013 RMK AO2
KUKF 180450Z AUTO 00000KT 2SM BR OVC003 04/04 A3014 RMK AO2
KUKF 180430Z AUTO 00000KT 3SM BR OVC003 04/04 A3015 RMK AO2
KUKF 180410Z AUTO 00000KT 4SM BR OVC003 04/04 A3015 RMK AO2
KUKF 180350Z AUTO 00000KT 4SM BR OVC003 04/04 A3015 RMK AO2
KUKF 180330Z AUTO 00000KT 5SM BR OVC003 04/04 A3015 RMK AO2
KUKF 180310Z AUTO 00000KT 4SM BR OVC003 04/04 A3015 RMK AO2
KUKF 180250Z AUTO 00000KT 3SM BR OVC003 04/04 A3015 RMK AO2
KUKF 180230Z AUTO 00000KT 5SM BR OVC003 04/04 A3014 RMK AO2
KUKF 180210Z AUTO 00000KT 7SM OVC003 04/04 A3015 RMK AO2
KUKF 180150Z AUTO 00000KT 7SM OVC003 04/04 A3015 RMK AO2
KUKF 180130Z AUTO 00000KT 4SM BR OVC003 04/04 A3013 RMK AO2
KUKF 180110Z AUTO 11004KT 5SM RA OVC003 04/04 A3014 RMK AO2
KUKF 180050Z AUTO 01006KT 5SM DZ OVC003 04/04 A3016 RMK AO2
KUKF 180030Z AUTO 05003KT 4SM -RA OVC003 04/04 A3013 RMK AO2
KUKF 180010Z AUTO 11003KT 5SM BR OVC003 04/04 A3012 RMK AO2
KUKF 172350Z AUTO 08004KT 7SM -DZ OVC003 04/04 A3013 RMK AO2
KUKF 172330Z AUTO 09005KT 7SM OVC003 05/05 A3013 RMK AO2
KUKF 172310Z AUTO 10004KT 5SM BR OVC003 05/05 A3012 RMK AO2
KUKF 172250Z AUTO 00000KT 4SM BR SCT003 BKN012 OVC020 05/05 A3014 RMK AO2
KUKF 172230Z AUTO 00000KT 4SM BR SCT005 BKN010 OVC020 05/05 A3014 RMK AO2
KUKF 172210Z AUTO 00000KT 4SM BR OVC006 05/05 A3015 RMK AO2
KUKF 172150Z AUTO 00000KT 5SM BR OVC004 05/05 A3015 RMK AO2
KUKF 172130Z AUTO 00000KT 7SM OVC004 05/05 A3015 RMK AO2
KUKF 172110Z AUTO 00000KT 5SM BR OVC004 05/05 A3014 RMK AO2
KUKF 172050Z AUTO 24003KT 7SM OVC004 05/05 A3013 RMK AO2 P0001
KUKF 172030Z AUTO 18003KT 4SM BR SCT004 BKN013 OVC030 05/05 A3013 RMK AO2 P0001
KUKF 172010Z AUTO 00000KT 2 1/2SM RA SCT004 OVC013 05/05 A3015 RMK AO2 P0001
KUKF 171950Z AUTO 00000KT 4SM -DZ OVC011 05/05 A3015 RMK AO2 P0001
KUKF 171930Z AUTO 00000KT 4SM BR OVC009 05/05 A3016 RMK AO2
KUKF 171910Z AUTO 00000KT 3SM -DZ SCT005 OVC013 05/05 A3017 RMK AO2
KUKF 171850Z AUTO 00000KT 3SM DZ SCT007 OVC011 05/05 A3017 RMK AO2 P0003
KUKF 171830Z AUTO 00000KT 3SM DZ BKN005 OVC009 04/04 A3018 RMK AO2 P0002
KUKF 171810Z AUTO 00000KT 2SM +DZ OVC005 05/05 A3019 RMK AO2 P0001
KUKF 171750Z AUTO 00000KT 2SM DZ OVC005 04/04 A3020 RMK AO2 P0002
KUKF 171730Z AUTO 03003KT 1 3/4SM +DZ OVC005 04/04 A3022 RMK AO2 P0001
KUKF 171710Z AUTO 00000KT 3SM DZ BKN007 OVC016 04/04 A3024 RMK AO2
KUKF 171650Z AUTO 05004KT 3SM DZ BKN007 OVC013 04/04 A3025 RMK AO2 P0001
KUKF 171630Z AUTO 05005KT 3SM DZ BKN009 OVC019 04/04 A3026 RMK AO2
KUKF 171610Z AUTO 05004KT 3SM RA SCT009 BKN018 OVC023 05/05 A3027 RMK AO2
KUKF 171550Z AUTO 06004KT 7SM -DZ OVC019 05/03 A3028 RMK AO2
KUKF 171530Z AUTO 03005KT 10SM OVC022 05/03 A3030 RMK AO2
KUKF 171510Z AUTO 36004KT 10SM OVC024 05/03 A3030 RMK AO2
KUKF 171450Z AUTO 36003KT 10SM OVC026 05/04 A3030 RMK AO2
KUKF 171430Z AUTO 02003KT 10SM OVC028 05/04 A3030 RMK AO2
KUKF 171410Z AUTO 00000KT 10SM -DZ OVC030 05/03 A3030 RMK AO2
KUKF 171350Z AUTO 00000KT 7SM RA SCT034 OVC039 06/03 A3030 RMK AO2
KUKF 171330Z AUTO 00000KT 10SM -DZ OVC041 06/02 A3033 RMK AO2
KUKF 171310Z AUTO 09003KT 10SM OVC043 06/01 A3031 RMK AO2
KUKF 171250Z AUTO 00000KT 10SM OVC043 06/01 A3031 RMK AO2
KUKF 171230Z AUTO 11003KT 10SM OVC043 06/02 A3030 RMK AO2
KUKF 171210Z AUTO 06003KT 10SM OVC043 06/01 A3030 RMK AO2
KUKF 171150Z AUTO 05003KT 10SM OVC043 06/02 A3029 RMK AO2
KUKF 171130Z AUTO 00000KT 10SM OVC043 06/02 A3029 RMK AO2
KUKF 171110Z AUTO 09003KT 10SM OVC043 06/02 A3029 RMK AO2
KUKF 171050Z AUTO 09003KT 10SM OVC043 06/02 A3029 RMK AO2
KUKF 171030Z AUTO 09004KT 10SM OVC045 06/02 A3028 RMK AO2
KUKF 171010Z AUTO 09003KT 10SM OVC045 06/02 A3028 RMK AO2
KUKF 170950Z AUTO 06003KT 10SM OVC045 06/02 A3027 RMK AO2
KUKF 170930Z AUTO 09003KT 10SM OVC047 07/02 A3027 RMK AO2
KUKF 170910Z AUTO 08003KT 10SM OVC045 07/02 A3026 RMK AO2
KUKF 170850Z AUTO 08005KT 10SM BKN045 07/02 A3024 RMK AO2
KUKF 170830Z AUTO 07003KT 10SM CLR 06/02 A3026 RMK AO2
KUKF 170810Z AUTO 00000KT 10SM CLR 06/02 A3024 RMK AO2
KUKF 170750Z AUTO 00000KT 10SM CLR 07/01 A3025 RMK AO2